createdAt,value
2022-07-29T00:04:18.720Z,19.85
2022-07-29T00:09:20.527Z,19.33
2022-07-29T00:14:22.035Z,19.52
2022-07-29T00:19:23.555Z,19.85
2022-07-29T00:24:25.084Z,19.74
2022-07-29T00:29:34.942Z,20.02
2022-07-29T00:34:55.346Z,19.52
2022-07-29T00:39:56.855Z,19.81
2022-07-29T00:44:58.370Z,19.88
2022-07-29T00:49:59.895Z,19.74
2022-07-29T00:55:06.314Z,19.58
2022-07-29T01:00:13.713Z,19.78
2022-07-29T01:05:15.768Z,19.66
2022-07-29T01:10:17.614Z,19.93
2022-07-29T01:15:19.190Z,19.91
2022-07-29T01:20:32.723Z,19.87
2022-07-29T01:25:47.974Z,19.82
2022-07-29T01:30:54.885Z,19.99
2022-07-29T01:35:58.899Z,19.96
2022-07-29T01:41:04.935Z,19.81
2022-07-29T01:46:09.526Z,19.97
2022-07-29T01:51:17.979Z,19.82
2022-07-29T01:56:19.740Z,19.89
2022-07-29T02:01:21.346Z,19.80
2022-07-29T02:06:23.365Z,19.90
2022-07-29T02:11:25.087Z,19.88
2022-07-29T02:16:26.674Z,19.93
2022-07-29T02:21:29.004Z,19.75
2022-07-29T02:26:30.408Z,19.91
2022-07-29T02:31:34.691Z,19.88
2022-07-29T02:36:36.364Z,19.87
2022-07-29T02:41:51.867Z,19.85
2022-07-29T02:47:16.860Z,19.79
2022-07-29T02:52:32.974Z,19.73
2022-07-29T02:57:54.534Z,19.69
2022-07-29T03:02:59.632Z,19.85
2022-07-29T03:08:05.507Z,19.66
2022-07-29T03:13:07.343Z,19.71
2022-07-29T03:18:09.409Z,19.72
2022-07-29T03:23:10.929Z,19.51
2022-07-29T03:28:12.452Z,19.85
2022-07-29T03:33:13.965Z,19.84
2022-07-29T03:38:15.476Z,20.04
2022-07-29T03:43:17.749Z,19.82
2022-07-29T03:48:21.124Z,20.09
2022-07-29T03:53:22.634Z,20.04
2022-07-29T03:58:24.277Z,19.90
2022-07-29T04:03:25.879Z,19.94
2022-07-29T04:08:27.477Z,20.07
2022-07-29T04:13:28.999Z,19.97
2022-07-29T04:18:30.519Z,20.04
2022-07-29T04:23:34.860Z,20.10
2022-07-29T04:28:36.467Z,20.14
2022-07-29T04:33:37.966Z,20.27
2022-07-29T04:38:39.896Z,20.17
2022-07-29T04:43:41.409Z,20.26
2022-07-29T04:48:43.372Z,20.12
2022-07-29T04:53:44.945Z,20.47
2022-07-29T04:58:46.713Z,20.65
2022-07-29T05:03:48.245Z,20.76
2022-07-29T05:08:49.777Z,20.79
2022-07-29T05:13:51.297Z,20.75
2022-07-29T05:18:52.888Z,20.91
2022-07-29T05:23:54.393Z,20.83
2022-07-29T05:28:55.973Z,20.94
2022-07-29T05:33:57.498Z,20.90
2022-07-29T05:38:59.031Z,20.90
2022-07-29T05:44:00.610Z,20.97
2022-07-29T05:49:03.768Z,21.08
2022-07-29T05:54:05.391Z,20.97
2022-07-29T05:59:06.980Z,20.96
2022-07-29T06:04:20.502Z,21.01
2022-07-29T06:09:23.973Z,21.26
2022-07-29T06:14:26.082Z,21.04
2022-07-29T06:19:27.503Z,21.06
2022-07-29T06:24:29.012Z,21.04
2022-07-29T06:29:30.556Z,20.97
2022-07-29T06:34:32.070Z,21.06
2022-07-29T06:39:37.673Z,21.01
2022-07-29T06:44:39.229Z,21.02
2022-07-29T06:49:40.778Z,21.20
2022-07-29T06:54:48.857Z,21.16
2022-07-29T06:59:50.379Z,21.12
2022-07-29T07:04:51.900Z,21.33
2022-07-29T07:09:53.416Z,21.32
2022-07-29T07:14:54.929Z,21.40
2022-07-29T07:19:56.481Z,21.62
2022-07-29T07:24:58.019Z,21.20
2022-07-29T07:29:59.548Z,21.58
2022-07-29T07:35:01.090Z,21.72
2022-07-29T07:40:02.778Z,21.48
2022-07-29T07:45:13.571Z,21.62
2022-07-29T07:50:18.999Z,21.24
2022-07-29T07:55:21.103Z,21.85
2022-07-29T08:00:22.987Z,21.65
2022-07-29T08:05:25.084Z,21.54
2022-07-29T08:10:45.168Z,21.65
2022-07-29T08:15:46.988Z,21.99
2022-07-29T08:20:48.505Z,22.18
2022-07-29T08:25:50.704Z,22.44
2022-07-29T08:30:52.249Z,22.29
2022-07-29T08:35:53.773Z,22.62
2022-07-29T08:40:55.295Z,23.22
2022-07-29T08:45:56.890Z,23.09
2022-07-29T08:50:58.488Z,23.29
2022-07-29T08:56:01.324Z,23.94
2022-07-29T09:01:03.217Z,23.63
2022-07-29T09:06:04.950Z,24.14
2022-07-29T09:11:07.894Z,24.26
2022-07-29T09:16:09.857Z,24.18
2022-07-29T09:21:31.663Z,24.24
2022-07-29T09:26:34.203Z,24.19
2022-07-29T09:31:37.604Z,24.42
2022-07-29T09:36:43.370Z,24.08
2022-07-29T09:41:53.868Z,24.26
2022-07-29T09:47:10.623Z,24.34
2022-07-29T09:52:12.613Z,24.50
2022-07-29T09:57:30.924Z,24.23
2022-07-29T10:02:34.230Z,24.15
2022-07-29T10:07:53.867Z,23.96
2022-07-29T10:13:03.043Z,23.22
2022-07-29T10:18:08.882Z,24.38
2022-07-29T10:23:10.431Z,24.56
2022-07-29T10:28:15.987Z,24.87
2022-07-29T10:33:52.523Z,24.51
2022-07-29T10:39:03.291Z,24.81
2022-07-29T10:44:17.372Z,24.82
2022-07-29T10:49:27.069Z,24.94
2022-07-29T10:54:38.023Z,24.82
2022-07-29T10:59:53.135Z,25.07
2022-07-29T11:04:55.016Z,25.12
2022-07-29T11:10:16.437Z,25.27
2022-07-29T11:15:20.086Z,25.24
2022-07-29T11:20:38.293Z,25.48
2022-07-29T11:31:01.306Z,25.72
2022-07-29T11:36:16.892Z,25.87
2022-07-29T11:41:19.008Z,25.84
2022-07-29T11:46:45.359Z,26.18
2022-07-29T11:51:54.970Z,25.94
2022-07-29T11:56:58.743Z,25.90
2022-07-29T12:02:18.412Z,25.97
2022-07-29T12:07:48.537Z,25.94
2022-07-29T12:12:53.809Z,26.05
2022-07-29T12:17:55.334Z,25.55
2022-07-29T12:22:56.846Z,25.86
2022-07-29T12:28:02.056Z,25.87
2022-07-29T12:33:03.622Z,25.47
2022-07-29T12:38:05.324Z,26.18
2022-07-29T12:43:11.594Z,26.09
2022-07-29T12:48:13.278Z,25.77
2022-07-29T12:53:14.856Z,25.82
2022-07-29T12:58:29.369Z,25.60
2022-07-29T13:03:57.549Z,24.78
2022-07-29T13:09:11.559Z,24.29
2022-07-29T13:14:15.335Z,24.26
2022-07-29T13:19:16.983Z,24.45
2022-07-29T13:24:19.977Z,24.48
2022-07-29T13:29:21.634Z,24.72
2022-07-29T13:34:25.299Z,24.59
2022-07-29T13:39:26.844Z,24.46
2022-07-29T13:44:28.376Z,24.12
2022-07-29T13:49:29.906Z,24.59
2022-07-29T13:54:31.463Z,25.53
2022-07-29T13:59:32.988Z,25.64
2022-07-29T14:04:34.587Z,26.08
2022-07-29T14:09:40.934Z,26.41
2022-07-29T14:14:44.261Z,25.89
2022-07-29T14:19:48.836Z,26.11
2022-07-29T14:24:50.352Z,26.23
2022-07-29T14:29:51.893Z,26.11
2022-07-29T14:34:53.403Z,26.13
2022-07-29T14:39:55.501Z,25.85
2022-07-29T14:44:57.172Z,26.23
2022-07-29T14:49:58.683Z,26.46
2022-07-29T14:55:00.490Z,25.71
2022-07-29T15:00:02.572Z,25.80
2022-07-29T15:05:04.395Z,25.83
2022-07-29T15:10:06.278Z,25.47
2022-07-29T15:15:09.970Z,25.85
2022-07-29T15:20:12.687Z,25.29
2022-07-29T15:25:14.206Z,25.82
2022-07-29T15:30:32.735Z,24.65
2022-07-29T15:35:40.323Z,24.54
2022-07-29T15:40:44.160Z,24.95
2022-07-29T15:46:05.803Z,24.70
2022-07-29T15:51:07.437Z,25.65
2022-07-29T15:56:09.126Z,25.10
2022-07-29T16:01:11.374Z,25.46
2022-07-29T16:06:13.303Z,24.94
2022-07-29T16:11:14.928Z,24.85
2022-07-29T16:16:18.234Z,25.00
2022-07-29T16:21:19.769Z,24.17
2022-07-29T16:26:21.464Z,24.22
2022-07-29T16:31:23.252Z,24.21
2022-07-29T16:36:24.903Z,24.17
2022-07-29T16:41:26.451Z,24.15
2022-07-29T16:46:27.898Z,23.95
2022-07-29T16:51:30.132Z,24.24
2022-07-29T16:56:31.645Z,24.05
2022-07-29T17:01:33.074Z,24.43
2022-07-29T17:06:35.615Z,23.93
2022-07-29T17:11:53.764Z,24.07
2022-07-29T17:17:00.096Z,23.93
2022-07-29T17:22:18.644Z,23.83
2022-07-29T17:27:20.876Z,23.63
2022-07-29T17:32:22.281Z,23.65
2022-07-29T17:37:23.853Z,23.52
2022-07-29T17:42:25.363Z,23.43
2022-07-29T17:47:26.865Z,23.31
2022-07-29T17:52:28.384Z,23.16
2022-07-29T17:57:29.982Z,23.77
2022-07-29T18:02:31.683Z,23.47
2022-07-29T18:07:33.753Z,23.83
2022-07-29T18:12:35.302Z,23.78
2022-07-29T18:17:53.836Z,23.95
2022-07-29T18:22:58.412Z,23.11
2022-07-29T18:28:01.236Z,23.54
2022-07-29T18:33:20.677Z,23.11
2022-07-29T18:38:23.169Z,23.05
2022-07-29T18:43:24.691Z,22.69
2022-07-29T18:48:26.202Z,23.03
2022-07-29T18:53:27.779Z,23.38
2022-07-29T18:58:29.471Z,22.47
2022-07-29T19:03:30.870Z,23.27
2022-07-29T19:08:32.396Z,23.65
2022-07-29T19:13:33.928Z,23.92
2022-07-29T19:18:35.544Z,23.95
2022-07-29T19:24:00.660Z,23.99
2022-07-29T19:28:58.606Z,23.96
2022-07-29T19:34:00.152Z,24.03
2022-07-29T19:39:01.760Z,24.23
2022-07-29T19:44:03.677Z,24.28
2022-07-29T19:49:08.098Z,24.23
2022-07-29T19:54:09.658Z,24.05
2022-07-29T19:59:11.289Z,24.13
2022-07-29T20:04:13.902Z,24.05
2022-07-29T20:09:20.442Z,23.94
2022-07-29T20:14:22.707Z,24.02
2022-07-29T20:19:24.229Z,24.15
2022-07-29T20:24:25.896Z,23.96
2022-07-29T20:29:27.730Z,24.16
2022-07-29T20:34:30.325Z,24.14
2022-07-29T20:39:31.860Z,23.96
2022-07-29T20:44:33.462Z,23.98
2022-07-29T20:49:36.330Z,23.87
2022-07-29T20:54:37.872Z,23.98
2022-07-29T20:59:42.768Z,23.78
2022-07-29T21:04:47.154Z,23.91
2022-07-29T21:09:48.661Z,23.87
2022-07-29T21:14:50.282Z,23.89
2022-07-29T21:19:53.233Z,24.02
2022-07-29T21:24:54.779Z,23.81
2022-07-29T21:29:56.317Z,23.69
2022-07-29T21:35:00.772Z,23.75
2022-07-29T21:40:02.169Z,23.63
2022-07-29T21:45:04.545Z,23.62
2022-07-29T21:50:06.349Z,23.80
2022-07-29T21:55:07.892Z,23.72
2022-07-29T22:00:15.650Z,23.77
2022-07-29T22:05:17.163Z,23.80
2022-07-29T22:10:18.703Z,23.80
2022-07-29T22:15:20.218Z,23.70
2022-07-29T22:20:22.736Z,23.79
2022-07-29T22:25:24.255Z,23.81
2022-07-29T22:30:25.860Z,23.85
2022-07-29T22:35:27.431Z,23.72
2022-07-29T22:40:30.741Z,23.85
2022-07-29T22:45:34.260Z,24.02
2022-07-29T22:50:35.788Z,24.09
2022-07-29T22:55:37.338Z,24.11
2022-07-29T23:00:38.962Z,24.00
2022-07-29T23:05:40.472Z,24.03
2022-07-29T23:10:42.000Z,23.93
2022-07-29T23:15:43.547Z,23.94
2022-07-29T23:20:45.417Z,23.78
2022-07-29T23:25:47.075Z,23.90
2022-07-29T23:30:48.699Z,23.90
2022-07-29T23:35:50.306Z,23.96
2022-07-29T23:40:51.851Z,23.85
2022-07-29T23:45:53.709Z,23.82
2022-07-29T23:50:55.382Z,23.80
2022-07-29T23:55:57.002Z,23.75
